createdAt,value
2022-12-23T00:00:45.407Z,1.01
2022-12-23T00:03:13.230Z,0.98
2022-12-23T00:05:40.852Z,0.96
2022-12-23T00:08:08.640Z,1.02
2022-12-23T00:10:41.155Z,0.94
2022-12-23T00:13:27.993Z,0.92
2022-12-23T00:16:05.420Z,0.92
2022-12-23T00:18:33.427Z,0.91
2022-12-23T00:21:08.807Z,0.84
2022-12-23T00:23:39.655Z,0.85
2022-12-23T00:26:08.101Z,0.90
2022-12-23T00:28:35.302Z,0.93
2022-12-23T00:31:05.559Z,0.95
2022-12-23T00:33:38.886Z,0.94
2022-12-23T00:36:32.810Z,0.88
2022-12-23T00:39:19.560Z,0.94
2022-12-23T00:42:05.354Z,0.89
2022-12-23T00:44:32.854Z,0.81
2022-12-23T00:47:00.103Z,0.76
2022-12-23T00:49:42.509Z,0.71
2022-12-23T00:52:13.059Z,0.69
2022-12-23T00:54:40.766Z,0.69
2022-12-23T00:57:08.075Z,0.67
2022-12-23T00:59:35.442Z,0.61
2022-12-23T01:02:21.955Z,0.60
2022-12-23T01:05:08.193Z,0.56
2022-12-23T01:07:35.817Z,0.54
2022-12-23T01:10:03.381Z,0.54
2022-12-23T01:12:30.766Z,0.57
2022-12-23T01:14:58.245Z,0.57
2022-12-23T01:17:25.692Z,0.53
2022-12-23T01:19:53.060Z,0.52
2022-12-23T01:22:20.756Z,0.52
2022-12-23T01:24:48.200Z,0.52
2022-12-23T01:27:15.819Z,0.55
2022-12-23T01:29:43.517Z,0.58
2022-12-23T01:32:10.967Z,0.53
2022-12-23T01:34:38.301Z,0.62
2022-12-23T01:37:06.285Z,0.62
2022-12-23T01:39:33.680Z,0.62
2022-12-23T01:42:19.898Z,0.60
2022-12-23T01:44:51.490Z,0.66
2022-12-23T01:47:30.907Z,0.64
2022-12-23T01:50:02.516Z,0.59
2022-12-23T01:52:34.819Z,0.35
2022-12-23T01:55:02.377Z,0.69
2022-12-23T01:57:30.810Z,0.76
2022-12-23T02:00:16.711Z,0.77
2022-12-23T02:03:04.189Z,0.63
2022-12-23T02:05:32.250Z,0.71
2022-12-23T02:08:18.209Z,0.68
2022-12-23T02:11:14.419Z,0.67
2022-12-23T02:14:36.308Z,0.59
2022-12-23T02:17:20.942Z,0.61
2022-12-23T02:19:54.510Z,0.59
2022-12-23T02:22:41.636Z,0.52
2022-12-23T02:25:21.359Z,0.65
2022-12-23T02:28:16.012Z,0.15
2022-12-23T02:30:48.661Z,0.41
2022-12-23T02:33:35.076Z,0.56
2022-12-23T02:36:23.074Z,0.41
2022-12-23T02:38:53.773Z,0.26
2022-12-23T02:41:30.250Z,0.58
2022-12-23T02:44:08.638Z,0.60
2022-12-23T02:46:52.350Z,0.64
2022-12-23T02:49:33.968Z,0.72
2022-12-23T02:52:07.047Z,0.73
2022-12-23T02:54:42.042Z,0.74
2022-12-23T02:57:13.005Z,0.74
2022-12-23T02:59:46.350Z,0.76
2022-12-23T03:02:14.183Z,0.76
2022-12-23T03:04:42.494Z,0.75
2022-12-23T03:07:21.656Z,0.76
2022-12-23T03:10:09.475Z,0.72
2022-12-23T03:13:04.413Z,0.79
2022-12-23T03:15:52.357Z,0.83
2022-12-23T03:18:37.624Z,0.80
2022-12-23T03:21:29.893Z,0.76
2022-12-23T03:24:22.134Z,0.71
2022-12-23T03:27:00.593Z,0.80
2022-12-23T03:30:02.655Z,0.80
2022-12-23T03:32:36.851Z,0.78
2022-12-23T03:35:08.126Z,0.80
2022-12-23T03:37:40.030Z,0.81
2022-12-23T03:40:36.096Z,0.81
2022-12-23T03:43:09.474Z,0.84
2022-12-23T03:45:43.370Z,0.85
2022-12-23T03:48:33.990Z,0.85
2022-12-23T03:51:34.755Z,0.83
2022-12-23T03:54:14.529Z,0.61
2022-12-23T03:56:48.069Z,0.82
2022-12-23T03:59:24.401Z,0.84
2022-12-23T04:02:01.996Z,0.83
2022-12-23T04:05:11.381Z,0.79
2022-12-23T04:08:12.334Z,0.62
2022-12-23T04:10:40.205Z,0.68
2022-12-23T04:13:07.939Z,0.83
2022-12-23T04:15:41.653Z,0.84
2022-12-23T04:18:10.395Z,0.85
2022-12-23T04:20:38.109Z,0.90
2022-12-23T04:23:06.020Z,0.88
2022-12-23T04:25:33.491Z,0.84
2022-12-23T04:28:01.962Z,0.83
2022-12-23T04:30:33.914Z,0.83
2022-12-23T04:33:02.622Z,0.85
2022-12-23T04:35:30.709Z,0.80
2022-12-23T04:37:58.180Z,0.79
2022-12-23T04:40:25.799Z,0.79
2022-12-23T04:42:53.301Z,0.75
2022-12-23T04:45:20.742Z,0.55
2022-12-23T04:47:48.322Z,0.81
2022-12-23T04:50:17.223Z,0.83
2022-12-23T04:52:44.732Z,0.84
2022-12-23T04:55:12.679Z,0.85
2022-12-23T04:57:40.379Z,0.74
2022-12-23T05:00:08.792Z,0.84
2022-12-23T05:02:36.227Z,0.82
2022-12-23T05:05:04.591Z,0.83
2022-12-23T05:07:32.030Z,0.82
2022-12-23T05:10:02.130Z,0.86
2022-12-23T05:12:32.292Z,0.20
2022-12-23T05:14:59.616Z,0.59
2022-12-23T05:17:26.917Z,0.53
2022-12-23T05:19:54.629Z,0.82
2022-12-23T05:22:22.090Z,0.80
2022-12-23T05:24:49.843Z,0.81
2022-12-23T05:27:17.631Z,0.78
2022-12-23T05:29:45.047Z,0.72
2022-12-23T05:32:12.403Z,0.22
2022-12-23T05:34:39.935Z,0.80
2022-12-23T05:37:07.516Z,0.81
2022-12-23T05:39:34.696Z,0.83
2022-12-23T05:42:02.317Z,0.82
2022-12-23T05:44:29.755Z,0.78
2022-12-23T05:46:57.277Z,0.80
2022-12-23T05:49:26.013Z,0.79
2022-12-23T05:51:53.341Z,0.79
2022-12-23T05:54:20.870Z,0.82
2022-12-23T05:56:48.460Z,0.72
2022-12-23T05:59:15.870Z,0.76
2022-12-23T06:01:43.835Z,0.75
2022-12-23T06:04:12.215Z,0.75
2022-12-23T06:06:39.800Z,0.72
2022-12-23T06:09:07.121Z,0.71
2022-12-23T06:11:34.803Z,0.69
2022-12-23T06:14:02.952Z,0.69
2022-12-23T06:16:30.318Z,0.20
2022-12-23T06:18:58.035Z,0.78
2022-12-23T06:21:28.439Z,0.80
2022-12-23T06:23:55.829Z,0.88
2022-12-23T06:26:23.610Z,0.95
2022-12-23T06:28:51.804Z,0.92
2022-12-23T06:31:19.680Z,0.94
2022-12-23T06:33:47.376Z,1.01
2022-12-23T06:36:14.894Z,0.99
2022-12-23T06:38:42.127Z,0.72
2022-12-23T06:41:10.141Z,0.98
2022-12-23T06:43:37.577Z,1.04
2022-12-23T06:46:05.154Z,1.05
2022-12-23T06:48:32.761Z,1.05
2022-12-23T06:51:00.519Z,1.13
2022-12-23T06:53:27.801Z,1.32
2022-12-23T06:56:02.215Z,0.98
2022-12-23T06:58:30.666Z,1.30
2022-12-23T07:00:58.008Z,1.47
2022-12-23T07:03:25.720Z,1.35
2022-12-23T07:05:54.297Z,1.33
2022-12-23T07:08:21.673Z,1.27
2022-12-23T07:10:49.968Z,1.28
2022-12-23T07:13:17.281Z,1.20
2022-12-23T07:15:44.656Z,1.15
2022-12-23T07:18:12.382Z,1.11
2022-12-23T07:20:39.755Z,1.12
2022-12-23T07:23:06.978Z,1.20
2022-12-23T07:25:34.465Z,1.18
2022-12-23T07:28:01.939Z,1.14
2022-12-23T07:30:29.430Z,1.12
2022-12-23T07:32:56.891Z,1.13
2022-12-23T07:35:24.781Z,1.21
2022-12-23T07:37:56.474Z,1.22
2022-12-23T07:40:25.097Z,1.20
2022-12-23T07:42:59.565Z,1.07
2022-12-23T07:45:28.105Z,0.97
2022-12-23T07:47:57.033Z,1.07
2022-12-23T07:50:25.372Z,1.11
2022-12-23T07:52:53.877Z,1.12
2022-12-23T07:55:21.557Z,1.15
2022-12-23T07:57:52.719Z,1.21
2022-12-23T08:00:20.920Z,1.34
2022-12-23T08:02:48.631Z,1.45
2022-12-23T08:05:17.693Z,1.47
2022-12-23T08:07:50.124Z,1.40
2022-12-23T08:10:17.960Z,1.42
2022-12-23T08:12:46.869Z,1.39
2022-12-23T08:15:14.353Z,1.35
2022-12-23T08:17:41.846Z,1.01
2022-12-23T08:20:09.963Z,1.28
2022-12-23T08:22:37.464Z,1.27
2022-12-23T08:25:05.166Z,1.31
2022-12-23T08:27:32.734Z,1.30
2022-12-23T08:30:00.177Z,1.27
2022-12-23T08:32:28.322Z,1.29
2022-12-23T08:34:58.024Z,1.31
2022-12-23T08:37:25.838Z,1.38
2022-12-23T08:39:53.357Z,1.04
2022-12-23T08:42:20.930Z,1.31
2022-12-23T08:44:48.357Z,1.28
2022-12-23T08:47:15.737Z,1.24
2022-12-23T08:49:43.249Z,1.21
2022-12-23T08:52:10.704Z,1.20
2022-12-23T08:54:37.941Z,1.18
2022-12-23T08:57:05.648Z,1.14
2022-12-23T08:59:33.119Z,1.19
2022-12-23T09:02:02.262Z,1.31
2022-12-23T09:04:29.833Z,1.37
2022-12-23T09:06:57.470Z,1.38
2022-12-23T09:09:25.002Z,1.30
2022-12-23T09:11:52.523Z,1.37
2022-12-23T09:14:19.941Z,1.43
2022-12-23T09:16:51.946Z,1.40
2022-12-23T09:19:19.514Z,1.39
2022-12-23T09:21:46.950Z,1.53
2022-12-23T09:24:14.375Z,1.52
2022-12-23T09:26:41.984Z,1.46
2022-12-23T09:29:09.304Z,1.41
2022-12-23T09:31:38.054Z,1.35
2022-12-23T09:34:06.273Z,1.25
2022-12-23T09:36:34.102Z,0.93
2022-12-23T09:39:01.593Z,1.29
2022-12-23T09:41:55.386Z,1.28
2022-12-23T09:44:22.602Z,1.37
2022-12-23T09:46:58.725Z,1.36
2022-12-23T09:49:26.737Z,1.21
2022-12-23T09:52:00.461Z,1.28
2022-12-23T09:54:33.684Z,1.38
2022-12-23T09:57:11.718Z,1.41
2022-12-23T09:59:41.749Z,1.43
2022-12-23T10:02:30.811Z,1.42
2022-12-23T10:05:06.171Z,1.30
2022-12-23T10:07:39.966Z,1.36
2022-12-23T10:10:48.878Z,1.33
2022-12-23T10:13:28.094Z,0.95
2022-12-23T10:16:03.529Z,1.13
2022-12-23T10:18:52.647Z,1.23
2022-12-23T10:21:32.107Z,1.18
2022-12-23T10:24:11.915Z,1.25
2022-12-23T10:26:52.059Z,0.97
2022-12-23T10:29:24.729Z,1.30
2022-12-23T10:32:12.965Z,1.34
2022-12-23T10:34:47.816Z,1.40
2022-12-23T10:37:29.791Z,1.32
2022-12-23T10:40:20.659Z,1.42
2022-12-23T10:43:11.659Z,1.48
2022-12-23T10:45:48.677Z,1.52
2022-12-23T10:48:51.067Z,1.43
2022-12-23T10:51:27.552Z,1.38
2022-12-23T10:54:04.410Z,1.17
2022-12-23T10:56:32.548Z,1.19
2022-12-23T10:59:01.524Z,0.91
2022-12-23T11:01:32.511Z,1.03
2022-12-23T11:04:03.798Z,1.26
2022-12-23T11:06:37.513Z,1.27
2022-12-23T11:09:07.550Z,1.17
2022-12-23T11:11:55.018Z,1.13
2022-12-23T11:14:37.712Z,0.99
2022-12-23T11:17:18.269Z,1.06
2022-12-23T11:19:45.951Z,0.56
2022-12-23T11:22:25.929Z,1.15
2022-12-23T11:24:53.420Z,1.16
2022-12-23T11:27:20.844Z,1.18
2022-12-23T11:29:55.061Z,1.14
2022-12-23T11:32:25.431Z,1.23
2022-12-23T11:34:54.097Z,0.99
2022-12-23T11:37:41.855Z,1.23
2022-12-23T11:40:26.903Z,1.27
2022-12-23T11:43:04.218Z,1.23
2022-12-23T11:45:36.690Z,0.93
2022-12-23T11:48:05.834Z,1.29
2022-12-23T11:50:39.401Z,1.22
2022-12-23T11:53:25.218Z,0.82
2022-12-23T11:56:04.357Z,1.09
2022-12-23T11:58:41.051Z,0.43
2022-12-23T12:01:17.202Z,0.90
2022-12-23T12:04:08.162Z,0.97
2022-12-23T12:06:41.968Z,1.00
2022-12-23T12:09:14.340Z,0.96
2022-12-23T12:11:49.697Z,0.92
2022-12-23T12:14:31.594Z,0.94
2022-12-23T12:17:06.390Z,0.30
2022-12-23T12:19:45.844Z,0.94
2022-12-23T12:22:31.517Z,0.96
2022-12-23T12:25:05.725Z,0.98
2022-12-23T12:27:38.388Z,0.96
2022-12-23T12:30:13.118Z,0.93
2022-12-23T12:32:46.821Z,0.89
2022-12-23T12:35:54.005Z,0.90
2022-12-23T12:38:26.859Z,0.93
2022-12-23T12:41:11.805Z,0.90
2022-12-23T12:43:48.318Z,0.93
2022-12-23T12:46:45.261Z,0.96
2022-12-23T12:49:25.235Z,0.87
2022-12-23T12:52:13.372Z,0.83
2022-12-23T12:54:56.688Z,0.91
2022-12-23T12:57:25.941Z,0.92
2022-12-23T13:00:03.595Z,0.85
2022-12-23T13:02:56.772Z,0.96
2022-12-23T13:05:39.431Z,0.92
2022-12-23T13:08:15.949Z,0.87
2022-12-23T13:10:50.080Z,0.88
2022-12-23T13:13:35.719Z,0.87
2022-12-23T13:16:21.835Z,0.85
2022-12-23T13:19:00.898Z,0.85
2022-12-23T13:21:50.933Z,0.88
2022-12-23T13:24:29.133Z,0.94
2022-12-23T13:27:21.422Z,0.67
2022-12-23T13:29:57.543Z,0.98
2022-12-23T13:32:31.497Z,0.97
2022-12-23T13:35:23.569Z,0.98
2022-12-23T13:38:36.257Z,0.67
2022-12-23T13:41:22.322Z,0.99
2022-12-23T13:43:54.132Z,0.69
2022-12-23T13:46:41.601Z,0.99
2022-12-23T13:49:28.088Z,0.98
2022-12-23T13:52:07.531Z,1.03
2022-12-23T13:55:04.727Z,1.03
2022-12-23T13:57:48.210Z,1.09
2022-12-23T14:00:18.575Z,1.22
2022-12-23T14:02:51.727Z,0.92
2022-12-23T14:06:02.031Z,1.08
2022-12-23T14:08:41.597Z,1.05
2022-12-23T14:11:09.340Z,1.05
2022-12-23T14:13:51.970Z,0.95
2022-12-23T14:16:43.553Z,1.03
2022-12-23T14:19:44.173Z,1.00
2022-12-23T14:22:43.139Z,0.99
2022-12-23T14:25:28.943Z,1.05
2022-12-23T14:28:02.480Z,1.05
2022-12-23T14:30:41.508Z,1.02
2022-12-23T14:33:32.286Z,0.95
2022-12-23T14:35:59.760Z,0.97
2022-12-23T14:38:30.096Z,0.96
2022-12-23T14:41:18.415Z,0.97
2022-12-23T14:43:45.736Z,0.93
2022-12-23T14:46:51.353Z,0.59
2022-12-23T14:49:41.088Z,0.89
2022-12-23T14:52:42.617Z,0.87
2022-12-23T14:55:32.617Z,0.84
2022-12-23T14:58:13.647Z,0.88
2022-12-23T15:00:51.194Z,0.88
2022-12-23T15:03:20.780Z,0.92
2022-12-23T15:05:48.945Z,0.65
2022-12-23T15:08:32.813Z,0.90
2022-12-23T15:11:00.459Z,0.88
2022-12-23T15:13:30.111Z,0.63
2022-12-23T15:16:01.804Z,0.89
2022-12-23T15:18:29.840Z,0.64
2022-12-23T15:21:10.567Z,0.88
2022-12-23T15:23:37.944Z,0.88
2022-12-23T15:26:05.596Z,0.92
2022-12-23T15:28:41.794Z,0.88
2022-12-23T15:31:24.003Z,0.76
2022-12-23T15:34:02.800Z,0.89
2022-12-23T15:36:36.920Z,0.84
2022-12-23T15:39:10.647Z,0.76
2022-12-23T15:41:46.362Z,0.82
2022-12-23T15:44:20.897Z,0.76
2022-12-23T15:46:50.963Z,0.86
2022-12-23T15:49:20.812Z,0.91
2022-12-23T15:52:07.997Z,0.90
2022-12-23T15:54:45.595Z,0.88
2022-12-23T15:57:19.889Z,0.67
2022-12-23T15:59:47.987Z,0.62
2022-12-23T16:02:59.604Z,0.96
2022-12-23T16:05:36.291Z,0.83
2022-12-23T16:08:29.666Z,0.88
2022-12-23T16:11:15.173Z,0.97
2022-12-23T16:13:59.256Z,1.01
2022-12-23T16:16:43.635Z,0.45
2022-12-23T16:19:45.020Z,0.97
2022-12-23T16:22:27.321Z,0.87
2022-12-23T16:25:00.326Z,1.00
2022-12-23T16:27:36.633Z,0.96
2022-12-23T16:30:09.521Z,0.89
2022-12-23T16:32:58.448Z,1.00
2022-12-23T16:35:36.728Z,1.03
2022-12-23T16:38:12.428Z,0.99
2022-12-23T16:40:40.419Z,1.02
2022-12-23T16:43:08.331Z,1.06
2022-12-23T16:45:37.272Z,1.13
2022-12-23T16:48:39.592Z,1.22
2022-12-23T16:51:17.090Z,1.20
2022-12-23T16:53:44.571Z,1.30
2022-12-23T16:56:13.240Z,1.03
2022-12-23T16:58:40.610Z,1.02
2022-12-23T17:01:27.176Z,1.27
2022-12-23T17:03:56.076Z,1.28
2022-12-23T17:06:24.314Z,0.64
2022-12-23T17:08:53.578Z,1.26
2022-12-23T17:11:36.333Z,0.94
2022-12-23T17:14:09.105Z,1.28
2022-12-23T17:16:39.620Z,1.28
2022-12-23T17:19:07.594Z,1.26
2022-12-23T17:21:39.937Z,1.28
2022-12-23T17:24:16.641Z,1.29
2022-12-23T17:26:44.123Z,1.27
2022-12-23T17:29:12.824Z,1.03
2022-12-23T17:31:42.668Z,0.65
2022-12-23T17:34:16.093Z,1.26
2022-12-23T17:36:49.525Z,1.26
2022-12-23T17:39:18.749Z,1.27
2022-12-23T17:41:46.734Z,0.72
2022-12-23T17:44:15.956Z,1.21
2022-12-23T17:46:44.719Z,1.27
2022-12-23T17:49:12.353Z,1.29
2022-12-23T17:51:40.704Z,1.22
2022-12-23T17:54:25.293Z,1.20
2022-12-23T17:56:53.141Z,1.26
2022-12-23T17:59:21.343Z,1.28
2022-12-23T18:01:49.769Z,1.27
2022-12-23T18:04:17.348Z,1.27
2022-12-23T18:06:44.970Z,1.09
2022-12-23T18:09:12.479Z,1.30
2022-12-23T18:11:44.199Z,1.30
2022-12-23T18:14:17.483Z,0.76
2022-12-23T18:16:45.008Z,0.97
2022-12-23T18:19:18.507Z,1.30
2022-12-23T18:21:46.522Z,1.34
2022-12-23T18:24:13.863Z,1.01
2022-12-23T18:26:41.393Z,1.02
2022-12-23T18:29:10.082Z,1.08
2022-12-23T18:31:48.401Z,1.25
2022-12-23T18:34:18.505Z,1.38
2022-12-23T18:36:48.619Z,1.45
2022-12-23T18:39:16.988Z,1.40
2022-12-23T18:41:44.444Z,1.09
2022-12-23T18:44:20.707Z,1.31
2022-12-23T18:46:48.501Z,1.28
2022-12-23T18:49:16.481Z,1.37
2022-12-23T18:51:46.127Z,1.41
2022-12-23T18:54:15.250Z,1.11
2022-12-23T18:56:42.826Z,1.40
2022-12-23T18:59:20.088Z,1.37
2022-12-23T19:01:50.100Z,1.13
2022-12-23T19:04:17.579Z,1.41
2022-12-23T19:06:45.261Z,1.42
2022-12-23T19:09:19.940Z,1.43
2022-12-23T19:11:49.087Z,1.44
2022-12-23T19:14:17.002Z,1.43
2022-12-23T19:16:50.828Z,1.42
2022-12-23T19:19:19.559Z,1.45
2022-12-23T19:21:47.032Z,1.11
2022-12-23T19:24:14.488Z,1.40
2022-12-23T19:26:42.894Z,1.15
2022-12-23T19:29:10.579Z,1.26
2022-12-23T19:31:37.783Z,1.40
2022-12-23T19:34:09.727Z,1.41
2022-12-23T19:36:41.854Z,1.36
2022-12-23T19:39:16.969Z,1.44
2022-12-23T19:41:45.336Z,1.43
2022-12-23T19:44:12.821Z,1.45
2022-12-23T19:46:40.445Z,1.47
2022-12-23T19:49:08.176Z,0.90
2022-12-23T19:51:35.565Z,1.42
2022-12-23T19:54:03.158Z,1.45
2022-12-23T19:56:32.518Z,1.44
2022-12-23T19:58:59.879Z,0.90
2022-12-23T20:01:27.682Z,1.48
2022-12-23T20:03:56.364Z,1.20
2022-12-23T20:06:31.372Z,1.48
2022-12-23T20:09:04.092Z,1.48
2022-12-23T20:11:42.404Z,1.53
2022-12-23T20:14:10.767Z,1.57
2022-12-23T20:16:39.692Z,1.53
2022-12-23T20:19:07.990Z,1.57
2022-12-23T20:21:37.574Z,1.48
2022-12-23T20:24:06.054Z,1.54
2022-12-23T20:26:34.316Z,1.55
2022-12-23T20:29:02.198Z,1.50
2022-12-23T20:31:32.442Z,1.59
2022-12-23T20:34:02.052Z,1.58
2022-12-23T20:36:32.448Z,1.53
2022-12-23T20:39:00.166Z,1.52
2022-12-23T20:41:29.148Z,1.51
2022-12-23T20:44:32.623Z,1.50
2022-12-23T20:46:44.766Z,1.13
2022-12-23T20:49:12.356Z,1.42
2022-12-23T20:51:39.695Z,1.54
2022-12-23T20:54:07.400Z,1.52
2022-12-23T20:56:35.106Z,1.53
2022-12-23T20:59:04.023Z,1.29
2022-12-23T21:01:38.302Z,1.48
2022-12-23T21:04:08.660Z,1.49
2022-12-23T21:06:36.577Z,1.49
2022-12-23T21:09:07.141Z,1.54
2022-12-23T21:11:38.101Z,1.16
2022-12-23T21:14:07.190Z,1.51
2022-12-23T21:16:37.065Z,1.50
2022-12-23T21:19:09.039Z,1.24
2022-12-23T21:21:36.355Z,1.56
2022-12-23T21:24:05.055Z,1.58
2022-12-23T21:26:34.443Z,1.54
2022-12-23T21:29:04.065Z,1.58
2022-12-23T21:31:33.588Z,1.57
2022-12-23T21:34:02.206Z,1.56
2022-12-23T21:36:32.725Z,1.56
2022-12-23T21:39:00.413Z,1.56
2022-12-23T21:41:31.041Z,1.57
2022-12-23T21:43:59.885Z,1.58
2022-12-23T21:46:28.814Z,1.58
2022-12-23T21:48:57.681Z,1.59
2022-12-23T21:51:29.403Z,1.59
2022-12-23T21:54:02.673Z,1.57
2022-12-23T21:56:31.441Z,1.58
2022-12-23T21:59:01.036Z,1.57
2022-12-23T22:01:29.480Z,1.57
2022-12-23T22:03:58.066Z,1.57
2022-12-23T22:06:27.835Z,1.29
2022-12-23T22:08:56.658Z,1.54
2022-12-23T22:11:26.653Z,1.52
2022-12-23T22:13:56.358Z,1.49
2022-12-23T22:16:25.798Z,1.39
2022-12-23T22:18:54.420Z,1.27
2022-12-23T22:21:23.799Z,1.50
2022-12-23T22:23:52.436Z,1.52
2022-12-23T22:26:25.863Z,1.53
2022-12-23T22:28:58.358Z,1.51
2022-12-23T22:31:44.339Z,1.52
2022-12-23T22:34:17.813Z,1.51
2022-12-23T22:36:45.959Z,1.55
2022-12-23T22:39:19.991Z,1.49
2022-12-23T22:41:52.649Z,1.54
2022-12-23T22:44:20.792Z,1.05
2022-12-23T22:46:48.732Z,1.60
2022-12-23T22:49:17.896Z,1.57
2022-12-23T22:51:45.564Z,1.50
2022-12-23T22:54:13.167Z,1.57
2022-12-23T22:56:40.699Z,1.62
2022-12-23T22:59:09.808Z,1.62
2022-12-23T23:01:37.271Z,1.35
2022-12-23T23:04:05.516Z,1.64
2022-12-23T23:06:37.886Z,1.62
2022-12-23T23:09:08.060Z,1.60
2022-12-23T23:11:35.900Z,1.58
2022-12-23T23:14:04.053Z,1.23
2022-12-23T23:16:32.226Z,1.60
2022-12-23T23:19:00.125Z,1.61
2022-12-23T23:21:27.788Z,1.63
2022-12-23T23:23:55.331Z,1.31
2022-12-23T23:26:26.879Z,1.60
2022-12-23T23:28:55.478Z,1.52
2022-12-23T23:34:12.035Z,1.48
2022-12-23T23:36:40.068Z,1.63
2022-12-23T23:39:08.062Z,0.97
2022-12-23T23:41:36.024Z,1.46
2022-12-23T23:44:03.956Z,1.62
2022-12-23T23:46:31.907Z,1.62
2022-12-23T23:48:59.518Z,1.60
2022-12-23T23:51:27.085Z,1.56
2022-12-23T23:53:54.381Z,1.52
2022-12-23T23:56:25.664Z,1.56
2022-12-23T23:58:54.754Z,1.53
